sensor_id;sensor_type;location;lat;lon;timestamp;P1;durP1;ratioP1;P2;durP2;ratioP2
77876;SDS011;67251;50.844;7.978;2023-02-24T00:01:01;21.08;;;6.97;;
77876;SDS011;67251;50.844;7.978;2023-02-24T00:03:33;16.80;;;6.00;;
77876;SDS011;67251;50.844;7.978;2023-02-24T00:06:01;17.83;;;6.97;;
77876;SDS011;67251;50.844;7.978;2023-02-24T00:08:29;18.48;;;6.45;;
77876;SDS011;67251;50.844;7.978;2023-02-24T00:10:55;19.60;;;6.80;;
77876;SDS011;67251;50.844;7.978;2023-02-24T00:13:21;16.90;;;6.47;;
77876;SDS011;67251;50.844;7.978;2023-02-24T00:15:56;18.13;;;7.30;;
77876;SDS011;67251;50.844;7.978;2023-02-24T00:18:29;19.30;;;7.10;;
77876;SDS011;67251;50.844;7.978;2023-02-24T00:21:00;19.08;;;6.65;;
77876;SDS011;67251;50.844;7.978;2023-02-24T00:23:28;19.15;;;7.07;;
77876;SDS011;67251;50.844;7.978;2023-02-24T00:25:59;20.83;;;6.88;;
77876;SDS011;67251;50.844;7.978;2023-02-24T00:28:26;19.90;;;6.47;;
77876;SDS011;67251;50.844;7.978;2023-02-24T00:30:52;20.70;;;6.68;;
77876;SDS011;67251;50.844;7.978;2023-02-24T00:33:19;17.73;;;6.00;;
77876;SDS011;67251;50.844;7.978;2023-02-24T00:35:47;22.80;;;7.00;;
77876;SDS011;67251;50.844;7.978;2023-02-24T00:38:13;18.23;;;6.18;;
77876;SDS011;67251;50.844;7.978;2023-02-24T00:40:39;22.92;;;8.80;;
77876;SDS011;67251;50.844;7.978;2023-02-24T00:43:05;19.70;;;7.10;;
77876;SDS011;67251;50.844;7.978;2023-02-24T00:45:34;18.83;;;7.22;;
77876;SDS011;67251;50.844;7.978;2023-02-24T00:48:03;20.40;;;6.80;;
77876;SDS011;67251;50.844;7.978;2023-02-24T00:50:29;20.23;;;8.25;;
77876;SDS011;67251;50.844;7.978;2023-02-24T00:52:55;19.13;;;7.65;;
77876;SDS011;67251;50.844;7.978;2023-02-24T00:55:21;21.73;;;7.55;;
77876;SDS011;67251;50.844;7.978;2023-02-24T00:57:47;20.65;;;7.68;;
77876;SDS011;67251;50.844;7.978;2023-02-24T01:00:15;19.38;;;7.80;;
77876;SDS011;67251;50.844;7.978;2023-02-24T01:02:41;26.38;;;8.10;;
77876;SDS011;67251;50.844;7.978;2023-02-24T01:07:37;22.00;;;7.25;;
77876;SDS011;67251;50.844;7.978;2023-02-24T01:10:03;20.75;;;6.93;;
77876;SDS011;67251;50.844;7.978;2023-02-24T01:12:32;21.27;;;8.02;;
77876;SDS011;67251;50.844;7.978;2023-02-24T01:15:17;25.30;;;8.15;;
77876;SDS011;67251;50.844;7.978;2023-02-24T01:17:45;22.00;;;7.53;;
77876;SDS011;67251;50.844;7.978;2023-02-24T01:20:11;25.92;;;7.85;;
77876;SDS011;67251;50.844;7.978;2023-02-24T01:22:48;24.40;;;7.55;;
77876;SDS011;67251;50.844;7.978;2023-02-24T01:25:17;23.45;;;8.43;;
77876;SDS011;67251;50.844;7.978;2023-02-24T01:27:44;24.80;;;7.70;;
77876;SDS011;67251;50.844;7.978;2023-02-24T01:30:10;24.92;;;8.57;;
77876;SDS011;67251;50.844;7.978;2023-02-24T01:32:39;23.70;;;7.75;;
77876;SDS011;67251;50.844;7.978;2023-02-24T01:35:08;22.70;;;8.15;;
77876;SDS011;67251;50.844;7.978;2023-02-24T01:37:36;27.50;;;9.27;;
77876;SDS011;67251;50.844;7.978;2023-02-24T01:40:01;27.45;;;9.80;;
77876;SDS011;67251;50.844;7.978;2023-02-24T01:42:45;23.80;;;8.88;;
77876;SDS011;67251;50.844;7.978;2023-02-24T01:45:13;25.25;;;8.98;;
77876;SDS011;67251;50.844;7.978;2023-02-24T01:47:41;22.80;;;7.93;;
77876;SDS011;67251;50.844;7.978;2023-02-24T01:50:08;24.52;;;8.20;;
77876;SDS011;67251;50.844;7.978;2023-02-24T01:56:07;26.42;;;9.13;;
77876;SDS011;67251;50.844;7.978;2023-02-24T01:58:32;25.77;;;8.80;;
77876;SDS011;67251;50.844;7.978;2023-02-24T02:00:58;28.70;;;10.55;;
77876;SDS011;67251;50.844;7.978;2023-02-24T02:03:31;28.40;;;9.98;;
77876;SDS011;67251;50.844;7.978;2023-02-24T02:06:00;28.55;;;9.95;;
77876;SDS011;67251;50.844;7.978;2023-02-24T02:08:29;26.48;;;9.65;;
77876;SDS011;67251;50.844;7.978;2023-02-24T02:10:56;32.08;;;10.70;;
77876;SDS011;67251;50.844;7.978;2023-02-24T02:13:27;32.00;;;11.27;;
77876;SDS011;67251;50.844;7.978;2023-02-24T02:16:02;30.20;;;10.70;;
77876;SDS011;67251;50.844;7.978;2023-02-24T02:18:54;34.95;;;11.27;;
77876;SDS011;67251;50.844;7.978;2023-02-24T02:21:43;30.00;;;10.60;;
77876;SDS011;67251;50.844;7.978;2023-02-24T02:24:25;28.90;;;9.85;;
77876;SDS011;67251;50.844;7.978;2023-02-24T02:35:37;28.98;;;9.68;;
77876;SDS011;67251;50.844;7.978;2023-02-24T02:38:13;26.35;;;9.27;;
77876;SDS011;67251;50.844;7.978;2023-02-24T02:46:30;30.88;;;9.80;;
77876;SDS011;67251;50.844;7.978;2023-02-24T02:49:05;40.05;;;11.70;;
77876;SDS011;67251;50.844;7.978;2023-02-24T02:51:49;32.72;;;9.75;;
77876;SDS011;67251;50.844;7.978;2023-02-24T02:57:18;29.58;;;9.57;;
77876;SDS011;67251;50.844;7.978;2023-02-24T02:59:52;37.35;;;11.82;;
77876;SDS011;67251;50.844;7.978;2023-02-24T03:02:25;35.60;;;11.63;;
77876;SDS011;67251;50.844;7.978;2023-02-24T03:04:55;37.33;;;12.50;;
77876;SDS011;67251;50.844;7.978;2023-02-24T03:07:25;38.20;;;11.75;;
77876;SDS011;67251;50.844;7.978;2023-02-24T03:09:55;38.67;;;12.85;;
77876;SDS011;67251;50.844;7.978;2023-02-24T03:12:25;35.45;;;11.00;;
77876;SDS011;67251;50.844;7.978;2023-02-24T03:14:59;40.05;;;11.73;;
77876;SDS011;67251;50.844;7.978;2023-02-24T03:17:29;39.85;;;11.30;;
77876;SDS011;67251;50.844;7.978;2023-02-24T03:20:05;39.53;;;12.75;;
77876;SDS011;67251;50.844;7.978;2023-02-24T03:23:03;39.45;;;12.10;;
77876;SDS011;67251;50.844;7.978;2023-02-24T03:25:38;44.50;;;14.10;;
77876;SDS011;67251;50.844;7.978;2023-02-24T03:28:38;31.00;;;10.23;;
77876;SDS011;67251;50.844;7.978;2023-02-24T03:33:43;41.53;;;12.20;;
77876;SDS011;67251;50.844;7.978;2023-02-24T03:36:33;38.75;;;12.13;;
77876;SDS011;67251;50.844;7.978;2023-02-24T03:38:59;43.03;;;12.55;;
77876;SDS011;67251;50.844;7.978;2023-02-24T03:41:33;41.78;;;13.10;;
77876;SDS011;67251;50.844;7.978;2023-02-24T03:44:03;42.00;;;11.43;;
77876;SDS011;67251;50.844;7.978;2023-02-24T03:46:34;42.00;;;12.45;;
77876;SDS011;67251;50.844;7.978;2023-02-24T03:49:02;50.10;;;14.60;;
77876;SDS011;67251;50.844;7.978;2023-02-24T03:51:45;43.17;;;13.45;;
77876;SDS011;67251;50.844;7.978;2023-02-24T04:00:20;41.05;;;13.00;;
77876;SDS011;67251;50.844;7.978;2023-02-24T04:03:05;45.35;;;12.82;;
77876;SDS011;67251;50.844;7.978;2023-02-24T04:05:38;43.63;;;12.90;;
77876;SDS011;67251;50.844;7.978;2023-02-24T04:10:58;40.47;;;12.65;;
77876;SDS011;67251;50.844;7.978;2023-02-24T04:13:34;25.60;;;8.13;;
77876;SDS011;67251;50.844;7.978;2023-02-24T04:16:08;21.77;;;7.47;;
77876;SDS011;67251;50.844;7.978;2023-02-24T04:18:41;20.23;;;6.15;;
77876;SDS011;67251;50.844;7.978;2023-02-24T04:21:12;19.75;;;6.45;;
77876;SDS011;67251;50.844;7.978;2023-02-24T04:23:41;18.58;;;6.07;;
77876;SDS011;67251;50.844;7.978;2023-02-24T04:26:08;13.02;;;5.25;;
77876;SDS011;67251;50.844;7.978;2023-02-24T04:28:37;11.57;;;3.97;;
77876;SDS011;67251;50.844;7.978;2023-02-24T04:31:06;12.20;;;4.75;;
77876;SDS011;67251;50.844;7.978;2023-02-24T04:33:41;14.27;;;4.28;;
77876;SDS011;67251;50.844;7.978;2023-02-24T04:36:07;12.65;;;4.80;;
77876;SDS011;67251;50.844;7.978;2023-02-24T04:38:34;15.57;;;5.13;;
77876;SDS011;67251;50.844;7.978;2023-02-24T04:41:00;13.52;;;4.78;;
77876;SDS011;67251;50.844;7.978;2023-02-24T04:43:26;12.48;;;4.30;;
77876;SDS011;67251;50.844;7.978;2023-02-24T04:45:53;14.10;;;6.15;;
77876;SDS011;67251;50.844;7.978;2023-02-24T04:48:19;13.93;;;5.38;;
77876;SDS011;67251;50.844;7.978;2023-02-24T04:50:45;13.93;;;4.78;;
77876;SDS011;67251;50.844;7.978;2023-02-24T04:53:12;12.68;;;4.82;;
77876;SDS011;67251;50.844;7.978;2023-02-24T04:55:40;16.27;;;5.55;;
77876;SDS011;67251;50.844;7.978;2023-02-24T04:58:11;15.60;;;5.32;;
77876;SDS011;67251;50.844;7.978;2023-02-24T05:00:38;11.55;;;4.50;;
77876;SDS011;67251;50.844;7.978;2023-02-24T05:03:06;13.65;;;5.15;;
77876;SDS011;67251;50.844;7.978;2023-02-24T05:05:36;16.23;;;5.97;;
77876;SDS011;67251;50.844;7.978;2023-02-24T05:08:03;13.07;;;5.00;;
77876;SDS011;67251;50.844;7.978;2023-02-24T05:10:38;11.48;;;4.47;;
77876;SDS011;67251;50.844;7.978;2023-02-24T05:13:06;10.73;;;4.25;;
77876;SDS011;67251;50.844;7.978;2023-02-24T05:15:33;14.27;;;4.82;;
77876;SDS011;67251;50.844;7.978;2023-02-24T05:18:05;13.13;;;4.60;;
77876;SDS011;67251;50.844;7.978;2023-02-24T05:20:39;17.70;;;5.55;;
77876;SDS011;67251;50.844;7.978;2023-02-24T05:23:29;12.18;;;4.70;;
77876;SDS011;67251;50.844;7.978;2023-02-24T05:26:00;12.98;;;5.18;;
77876;SDS011;67251;50.844;7.978;2023-02-24T05:28:27;13.25;;;4.88;;
77876;SDS011;67251;50.844;7.978;2023-02-24T05:31:09;11.35;;;3.40;;
77876;SDS011;67251;50.844;7.978;2023-02-24T05:33:40;9.65;;;3.60;;
77876;SDS011;67251;50.844;7.978;2023-02-24T05:38:43;10.13;;;3.55;;
77876;SDS011;67251;50.844;7.978;2023-02-24T05:41:11;8.95;;;3.22;;
77876;SDS011;67251;50.844;7.978;2023-02-24T05:43:42;11.00;;;3.63;;
77876;SDS011;67251;50.844;7.978;2023-02-24T05:46:13;9.30;;;3.70;;
77876;SDS011;67251;50.844;7.978;2023-02-24T05:48:39;10.23;;;4.15;;
77876;SDS011;67251;50.844;7.978;2023-02-24T05:51:05;10.07;;;3.58;;
77876;SDS011;67251;50.844;7.978;2023-02-24T05:53:32;12.27;;;4.35;;
77876;SDS011;67251;50.844;7.978;2023-02-24T05:56:01;11.13;;;4.25;;
77876;SDS011;67251;50.844;7.978;2023-02-24T05:58:29;12.35;;;4.30;;
77876;SDS011;67251;50.844;7.978;2023-02-24T06:00:56;8.88;;;3.70;;
77876;SDS011;67251;50.844;7.978;2023-02-24T06:03:29;11.30;;;4.00;;
77876;SDS011;67251;50.844;7.978;2023-02-24T06:05:58;11.93;;;3.33;;
77876;SDS011;67251;50.844;7.978;2023-02-24T06:08:29;9.27;;;3.80;;
77876;SDS011;67251;50.844;7.978;2023-02-24T06:11:05;12.27;;;3.70;;
77876;SDS011;67251;50.844;7.978;2023-02-24T06:13:32;15.63;;;4.35;;
77876;SDS011;67251;50.844;7.978;2023-02-24T06:15:58;11.77;;;4.18;;
77876;SDS011;67251;50.844;7.978;2023-02-24T06:18:24;10.00;;;3.92;;
77876;SDS011;67251;50.844;7.978;2023-02-24T06:20:50;9.93;;;4.05;;
77876;SDS011;67251;50.844;7.978;2023-02-24T06:23:15;11.45;;;3.17;;
77876;SDS011;67251;50.844;7.978;2023-02-24T06:25:41;11.40;;;3.63;;
77876;SDS011;67251;50.844;7.978;2023-02-24T06:28:07;17.33;;;4.07;;
77876;SDS011;67251;50.844;7.978;2023-02-24T06:30:33;8.77;;;3.30;;
77876;SDS011;67251;50.844;7.978;2023-02-24T06:32:59;9.40;;;3.97;;
77876;SDS011;67251;50.844;7.978;2023-02-24T06:35:24;11.20;;;3.95;;
77876;SDS011;67251;50.844;7.978;2023-02-24T06:37:51;11.07;;;4.00;;
77876;SDS011;67251;50.844;7.978;2023-02-24T06:40:19;11.27;;;3.83;;
77876;SDS011;67251;50.844;7.978;2023-02-24T06:42:49;12.05;;;3.55;;
77876;SDS011;67251;50.844;7.978;2023-02-24T06:45:18;12.82;;;4.05;;
77876;SDS011;67251;50.844;7.978;2023-02-24T06:47:45;10.60;;;3.92;;
77876;SDS011;67251;50.844;7.978;2023-02-24T06:50:13;14.73;;;4.10;;
77876;SDS011;67251;50.844;7.978;2023-02-24T06:52:47;12.73;;;3.72;;
77876;SDS011;67251;50.844;7.978;2023-02-24T06:55:14;14.93;;;4.03;;
77876;SDS011;67251;50.844;7.978;2023-02-24T06:57:56;10.38;;;3.80;;
77876;SDS011;67251;50.844;7.978;2023-02-24T07:00:27;14.45;;;4.63;;
77876;SDS011;67251;50.844;7.978;2023-02-24T07:03:15;11.07;;;5.07;;
77876;SDS011;67251;50.844;7.978;2023-02-24T07:05:45;11.93;;;4.25;;
77876;SDS011;67251;50.844;7.978;2023-02-24T07:08:24;15.35;;;4.22;;
77876;SDS011;67251;50.844;7.978;2023-02-24T07:10:54;10.65;;;3.67;;
77876;SDS011;67251;50.844;7.978;2023-02-24T07:13:25;9.70;;;3.80;;
77876;SDS011;67251;50.844;7.978;2023-02-24T07:15:54;11.73;;;3.03;;
77876;SDS011;67251;50.844;7.978;2023-02-24T07:18:20;11.90;;;3.67;;
77876;SDS011;67251;50.844;7.978;2023-02-24T07:20:47;11.10;;;3.72;;
77876;SDS011;67251;50.844;7.978;2023-02-24T07:23:13;11.02;;;3.63;;
77876;SDS011;67251;50.844;7.978;2023-02-24T07:25:41;11.02;;;3.45;;
77876;SDS011;67251;50.844;7.978;2023-02-24T07:28:10;11.20;;;2.97;;
77876;SDS011;67251;50.844;7.978;2023-02-24T07:30:37;10.90;;;3.67;;
77876;SDS011;67251;50.844;7.978;2023-02-24T07:33:04;11.10;;;3.50;;
77876;SDS011;67251;50.844;7.978;2023-02-24T07:35:31;9.82;;;2.70;;
77876;SDS011;67251;50.844;7.978;2023-02-24T07:37:57;9.15;;;2.08;;
77876;SDS011;67251;50.844;7.978;2023-02-24T07:40:29;10.05;;;2.38;;
77876;SDS011;67251;50.844;7.978;2023-02-24T07:42:58;7.97;;;2.08;;
77876;SDS011;67251;50.844;7.978;2023-02-24T07:45:25;11.45;;;2.05;;
77876;SDS011;67251;50.844;7.978;2023-02-24T07:47:50;8.10;;;2.30;;
77876;SDS011;67251;50.844;7.978;2023-02-24T07:50:16;8.48;;;2.53;;
77876;SDS011;67251;50.844;7.978;2023-02-24T07:52:43;6.82;;;1.73;;
77876;SDS011;67251;50.844;7.978;2023-02-24T07:55:12;8.75;;;2.17;;
77876;SDS011;67251;50.844;7.978;2023-02-24T07:57:39;10.05;;;2.65;;
77876;SDS011;67251;50.844;7.978;2023-02-24T08:00:11;12.02;;;2.60;;
77876;SDS011;67251;50.844;7.978;2023-02-24T08:02:45;9.50;;;3.17;;
77876;SDS011;67251;50.844;7.978;2023-02-24T08:05:13;11.73;;;2.63;;
77876;SDS011;67251;50.844;7.978;2023-02-24T08:07:39;9.27;;;2.63;;
77876;SDS011;67251;50.844;7.978;2023-02-24T08:10:07;9.02;;;3.17;;
77876;SDS011;67251;50.844;7.978;2023-02-24T08:12:48;11.57;;;2.47;;
77876;SDS011;67251;50.844;7.978;2023-02-24T08:15:19;8.25;;;2.08;;
77876;SDS011;67251;50.844;7.978;2023-02-24T08:17:48;9.63;;;1.55;;
77876;SDS011;67251;50.844;7.978;2023-02-24T08:20:13;11.00;;;1.30;;
77876;SDS011;67251;50.844;7.978;2023-02-24T08:22:42;7.57;;;1.83;;
77876;SDS011;67251;50.844;7.978;2023-02-24T08:25:11;6.22;;;1.48;;
77876;SDS011;67251;50.844;7.978;2023-02-24T08:27:42;5.55;;;1.80;;
77876;SDS011;67251;50.844;7.978;2023-02-24T08:30:10;7.80;;;1.25;;
77876;SDS011;67251;50.844;7.978;2023-02-24T08:32:54;5.07;;;1.30;;
77876;SDS011;67251;50.844;7.978;2023-02-24T08:35:28;8.63;;;1.90;;
77876;SDS011;67251;50.844;7.978;2023-02-24T08:37:57;7.22;;;1.80;;
77876;SDS011;67251;50.844;7.978;2023-02-24T08:40:27;11.23;;;1.60;;
77876;SDS011;67251;50.844;7.978;2023-02-24T08:45:44;10.77;;;2.03;;
77876;SDS011;67251;50.844;7.978;2023-02-24T08:48:18;9.93;;;1.73;;
77876;SDS011;67251;50.844;7.978;2023-02-24T08:50:52;5.82;;;1.58;;
77876;SDS011;67251;50.844;7.978;2023-02-24T08:53:18;12.38;;;1.95;;
77876;SDS011;67251;50.844;7.978;2023-02-24T08:55:45;9.10;;;1.80;;
77876;SDS011;67251;50.844;7.978;2023-02-24T08:58:16;4.90;;;1.35;;
77876;SDS011;67251;50.844;7.978;2023-02-24T09:00:50;9.98;;;1.60;;
77876;SDS011;67251;50.844;7.978;2023-02-24T09:03:22;7.10;;;1.83;;
77876;SDS011;67251;50.844;7.978;2023-02-24T09:06:03;9.77;;;1.92;;
77876;SDS011;67251;50.844;7.978;2023-02-24T09:08:31;8.52;;;2.53;;
77876;SDS011;67251;50.844;7.978;2023-02-24T09:11:01;8.43;;;2.15;;
77876;SDS011;67251;50.844;7.978;2023-02-24T09:13:37;6.95;;;2.38;;
77876;SDS011;67251;50.844;7.978;2023-02-24T09:16:15;7.32;;;2.50;;
77876;SDS011;67251;50.844;7.978;2023-02-24T09:18:42;10.30;;;2.65;;
77876;SDS011;67251;50.844;7.978;2023-02-24T09:21:12;9.75;;;1.95;;
77876;SDS011;67251;50.844;7.978;2023-02-24T09:24:01;9.57;;;2.80;;
77876;SDS011;67251;50.844;7.978;2023-02-24T09:26:34;7.53;;;2.10;;
77876;SDS011;67251;50.844;7.978;2023-02-24T09:29:11;6.97;;;2.28;;
77876;SDS011;67251;50.844;7.978;2023-02-24T09:31:56;10.23;;;2.63;;
77876;SDS011;67251;50.844;7.978;2023-02-24T09:34:35;12.82;;;2.78;;
77876;SDS011;67251;50.844;7.978;2023-02-24T09:37:08;9.90;;;2.42;;
77876;SDS011;67251;50.844;7.978;2023-02-24T09:39:49;7.35;;;1.80;;
77876;SDS011;67251;50.844;7.978;2023-02-24T09:42:26;6.72;;;2.08;;
77876;SDS011;67251;50.844;7.978;2023-02-24T09:45:00;7.63;;;2.13;;
77876;SDS011;67251;50.844;7.978;2023-02-24T09:47:44;7.53;;;2.08;;
77876;SDS011;67251;50.844;7.978;2023-02-24T09:52:49;10.95;;;1.90;;
77876;SDS011;67251;50.844;7.978;2023-02-24T10:06:40;8.55;;;1.95;;
77876;SDS011;67251;50.844;7.978;2023-02-24T10:17:57;6.30;;;1.88;;
77876;SDS011;67251;50.844;7.978;2023-02-24T10:26:42;7.25;;;1.80;;
77876;SDS011;67251;50.844;7.978;2023-02-24T10:31:47;10.23;;;3.50;;
77876;SDS011;67251;50.844;7.978;2023-02-24T10:34:22;13.02;;;2.72;;
77876;SDS011;67251;50.844;7.978;2023-02-24T10:36:56;11.45;;;2.85;;
77876;SDS011;67251;50.844;7.978;2023-02-24T10:39:26;11.65;;;2.80;;
77876;SDS011;67251;50.844;7.978;2023-02-24T10:41:58;12.88;;;3.05;;
77876;SDS011;67251;50.844;7.978;2023-02-24T10:44:42;13.52;;;3.22;;
77876;SDS011;67251;50.844;7.978;2023-02-24T10:47:19;10.65;;;2.80;;
77876;SDS011;67251;50.844;7.978;2023-02-24T10:49:56;11.25;;;2.92;;
77876;SDS011;67251;50.844;7.978;2023-02-24T10:55:39;9.80;;;3.35;;
77876;SDS011;67251;50.844;7.978;2023-02-24T10:58:16;12.85;;;3.90;;
77876;SDS011;67251;50.844;7.978;2023-02-24T11:00:53;10.88;;;3.47;;
77876;SDS011;67251;50.844;7.978;2023-02-24T11:03:50;14.10;;;3.17;;
77876;SDS011;67251;50.844;7.978;2023-02-24T11:06:36;8.05;;;3.03;;
77876;SDS011;67251;50.844;7.978;2023-02-24T11:09:05;17.70;;;3.70;;
77876;SDS011;67251;50.844;7.978;2023-02-24T11:11:54;11.63;;;4.03;;
77876;SDS011;67251;50.844;7.978;2023-02-24T11:14:48;7.82;;;3.10;;
77876;SDS011;67251;50.844;7.978;2023-02-24T11:17:44;9.63;;;3.55;;
77876;SDS011;67251;50.844;7.978;2023-02-24T11:23:05;9.77;;;3.72;;
77876;SDS011;67251;50.844;7.978;2023-02-24T11:33:41;9.38;;;2.88;;
77876;SDS011;67251;50.844;7.978;2023-02-24T11:38:44;12.07;;;3.20;;
77876;SDS011;67251;50.844;7.978;2023-02-24T11:41:23;9.82;;;3.67;;
77876;SDS011;67251;50.844;7.978;2023-02-24T11:43:55;9.07;;;3.03;;
77876;SDS011;67251;50.844;7.978;2023-02-24T11:46:32;7.47;;;2.78;;
77876;SDS011;67251;50.844;7.978;2023-02-24T11:49:04;10.23;;;2.88;;
77876;SDS011;67251;50.844;7.978;2023-02-24T11:51:40;6.90;;;2.53;;
77876;SDS011;67251;50.844;7.978;2023-02-24T11:54:10;8.60;;;2.95;;
77876;SDS011;67251;50.844;7.978;2023-02-24T11:56:40;14.57;;;3.03;;
77876;SDS011;67251;50.844;7.978;2023-02-24T11:59:15;7.18;;;2.80;;
77876;SDS011;67251;50.844;7.978;2023-02-24T12:01:49;8.95;;;2.72;;
77876;SDS011;67251;50.844;7.978;2023-02-24T12:09:25;12.98;;;3.42;;
77876;SDS011;67251;50.844;7.978;2023-02-24T12:11:57;11.90;;;3.08;;
77876;SDS011;67251;50.844;7.978;2023-02-24T12:14:38;11.13;;;3.15;;
77876;SDS011;67251;50.844;7.978;2023-02-24T12:20:01;11.75;;;3.17;;
77876;SDS011;67251;50.844;7.978;2023-02-24T12:22:42;8.60;;;3.35;;
77876;SDS011;67251;50.844;7.978;2023-02-24T12:25:14;6.30;;;2.60;;
77876;SDS011;67251;50.844;7.978;2023-02-24T12:30:42;6.15;;;2.60;;
77876;SDS011;67251;50.844;7.978;2023-02-24T12:39:14;8.50;;;2.90;;
77876;SDS011;67251;50.844;7.978;2023-02-24T12:42:00;10.68;;;3.08;;
77876;SDS011;67251;50.844;7.978;2023-02-24T12:44:34;8.70;;;2.78;;
77876;SDS011;67251;50.844;7.978;2023-02-24T12:47:08;7.32;;;2.85;;
77876;SDS011;67251;50.844;7.978;2023-02-24T12:52:26;8.32;;;2.78;;
77876;SDS011;67251;50.844;7.978;2023-02-24T12:55:00;12.00;;;3.30;;
77876;SDS011;67251;50.844;7.978;2023-02-24T13:00:16;10.65;;;3.78;;
77876;SDS011;67251;50.844;7.978;2023-02-24T13:08:55;7.32;;;2.90;;
77876;SDS011;67251;50.844;7.978;2023-02-24T13:11:32;8.77;;;3.50;;
77876;SDS011;67251;50.844;7.978;2023-02-24T13:14:20;10.75;;;3.80;;
77876;SDS011;67251;50.844;7.978;2023-02-24T13:16:48;13.27;;;4.60;;
77876;SDS011;67251;50.844;7.978;2023-02-24T13:24:31;8.85;;;3.35;;
77876;SDS011;67251;50.844;7.978;2023-02-24T13:27:19;9.18;;;3.97;;
77876;SDS011;67251;50.844;7.978;2023-02-24T13:29:51;8.02;;;3.85;;
77876;SDS011;67251;50.844;7.978;2023-02-24T13:32:44;6.18;;;2.72;;
77876;SDS011;67251;50.844;7.978;2023-02-24T13:37:40;10.95;;;4.43;;
77876;SDS011;67251;50.844;7.978;2023-02-24T13:42:40;8.57;;;3.72;;
77876;SDS011;67251;50.844;7.978;2023-02-24T14:01:14;8.45;;;3.50;;
77876;SDS011;67251;50.844;7.978;2023-02-24T14:03:48;7.95;;;3.67;;
77876;SDS011;67251;50.844;7.978;2023-02-24T14:06:34;9.13;;;3.75;;
77876;SDS011;67251;50.844;7.978;2023-02-24T14:09:01;9.02;;;3.78;;
77876;SDS011;67251;50.844;7.978;2023-02-24T14:11:31;8.35;;;3.95;;
77876;SDS011;67251;50.844;7.978;2023-02-24T14:13:59;7.25;;;3.72;;
77876;SDS011;67251;50.844;7.978;2023-02-24T14:16:26;7.80;;;3.65;;
77876;SDS011;67251;50.844;7.978;2023-02-24T14:18:57;7.82;;;3.25;;
77876;SDS011;67251;50.844;7.978;2023-02-24T14:21:31;10.02;;;4.05;;
77876;SDS011;67251;50.844;7.978;2023-02-24T14:24:02;8.63;;;3.85;;
77876;SDS011;67251;50.844;7.978;2023-02-24T14:26:42;13.88;;;4.45;;
77876;SDS011;67251;50.844;7.978;2023-02-24T14:32:02;9.32;;;4.25;;
77876;SDS011;67251;50.844;7.978;2023-02-24T14:34:29;6.80;;;3.28;;
77876;SDS011;67251;50.844;7.978;2023-02-24T14:36:56;8.40;;;3.65;;
77876;SDS011;67251;50.844;7.978;2023-02-24T14:39:27;9.20;;;4.18;;
77876;SDS011;67251;50.844;7.978;2023-02-24T14:44:33;10.15;;;3.72;;
77876;SDS011;67251;50.844;7.978;2023-02-24T14:47:08;8.10;;;4.05;;
77876;SDS011;67251;50.844;7.978;2023-02-24T14:49:35;8.32;;;4.38;;
77876;SDS011;67251;50.844;7.978;2023-02-24T14:52:06;7.40;;;3.40;;
77876;SDS011;67251;50.844;7.978;2023-02-24T14:57:33;5.72;;;3.83;;
77876;SDS011;67251;50.844;7.978;2023-02-24T15:00:04;7.88;;;4.00;;
77876;SDS011;67251;50.844;7.978;2023-02-24T15:02:43;7.22;;;3.25;;
77876;SDS011;67251;50.844;7.978;2023-02-24T15:05:13;10.32;;;4.70;;
77876;SDS011;67251;50.844;7.978;2023-02-24T15:07:42;9.32;;;4.50;;
77876;SDS011;67251;50.844;7.978;2023-02-24T15:10:19;6.22;;;3.53;;
77876;SDS011;67251;50.844;7.978;2023-02-24T15:13:32;9.52;;;3.83;;
77876;SDS011;67251;50.844;7.978;2023-02-24T15:15:40;11.10;;;4.50;;
77876;SDS011;67251;50.844;7.978;2023-02-24T15:18:11;8.25;;;4.07;;
77876;SDS011;67251;50.844;7.978;2023-02-24T15:20:45;9.15;;;3.97;;
77876;SDS011;67251;50.844;7.978;2023-02-24T15:23:23;8.20;;;4.20;;
77876;SDS011;67251;50.844;7.978;2023-02-24T15:25:51;7.47;;;3.60;;
77876;SDS011;67251;50.844;7.978;2023-02-24T15:28:35;7.85;;;3.92;;
77876;SDS011;67251;50.844;7.978;2023-02-24T15:33:31;10.63;;;4.57;;
77876;SDS011;67251;50.844;7.978;2023-02-24T15:35:59;8.82;;;3.75;;
77876;SDS011;67251;50.844;7.978;2023-02-24T15:38:29;9.70;;;4.20;;
77876;SDS011;67251;50.844;7.978;2023-02-24T15:40:58;8.25;;;3.83;;
77876;SDS011;67251;50.844;7.978;2023-02-24T15:43:35;9.68;;;4.90;;
77876;SDS011;67251;50.844;7.978;2023-02-24T15:46:13;7.18;;;3.65;;
77876;SDS011;67251;50.844;7.978;2023-02-24T15:48:41;8.15;;;4.05;;
77876;SDS011;67251;50.844;7.978;2023-02-24T15:51:09;8.20;;;3.95;;
77876;SDS011;67251;50.844;7.978;2023-02-24T15:53:53;9.50;;;3.95;;
77876;SDS011;67251;50.844;7.978;2023-02-24T15:56:19;7.97;;;4.40;;
77876;SDS011;67251;50.844;7.978;2023-02-24T15:58:44;7.15;;;3.60;;
77876;SDS011;67251;50.844;7.978;2023-02-24T16:01:10;9.90;;;4.75;;
77876;SDS011;67251;50.844;7.978;2023-02-24T16:03:36;6.95;;;3.28;;
77876;SDS011;67251;50.844;7.978;2023-02-24T16:06:02;6.88;;;3.45;;
77876;SDS011;67251;50.844;7.978;2023-02-24T16:08:28;7.90;;;4.20;;
77876;SDS011;67251;50.844;7.978;2023-02-24T16:10:55;7.15;;;3.83;;
77876;SDS011;67251;50.844;7.978;2023-02-24T16:13:22;9.05;;;4.70;;
77876;SDS011;67251;50.844;7.978;2023-02-24T16:15:49;7.25;;;3.25;;
77876;SDS011;67251;50.844;7.978;2023-02-24T16:18:18;8.05;;;3.70;;
77876;SDS011;67251;50.844;7.978;2023-02-24T16:20:46;9.02;;;3.97;;
77876;SDS011;67251;50.844;7.978;2023-02-24T16:23:18;8.80;;;4.72;;
77876;SDS011;67251;50.844;7.978;2023-02-24T16:25:46;9.90;;;4.30;;
77876;SDS011;67251;50.844;7.978;2023-02-24T16:28:17;8.50;;;4.68;;
77876;SDS011;67251;50.844;7.978;2023-02-24T16:30:44;9.77;;;4.57;;
77876;SDS011;67251;50.844;7.978;2023-02-24T16:33:10;7.35;;;3.78;;
77876;SDS011;67251;50.844;7.978;2023-02-24T16:35:37;11.40;;;4.47;;
77876;SDS011;67251;50.844;7.978;2023-02-24T16:38:06;6.70;;;3.78;;
77876;SDS011;67251;50.844;7.978;2023-02-24T16:40:39;9.73;;;4.20;;
77876;SDS011;67251;50.844;7.978;2023-02-24T16:43:05;9.45;;;3.65;;
77876;SDS011;67251;50.844;7.978;2023-02-24T16:45:31;7.22;;;3.85;;
77876;SDS011;67251;50.844;7.978;2023-02-24T16:47:58;8.23;;;4.35;;
77876;SDS011;67251;50.844;7.978;2023-02-24T16:50:25;7.75;;;4.53;;
77876;SDS011;67251;50.844;7.978;2023-02-24T16:52:54;8.82;;;4.22;;
77876;SDS011;67251;50.844;7.978;2023-02-24T16:55:20;7.85;;;3.75;;
77876;SDS011;67251;50.844;7.978;2023-02-24T16:57:45;9.38;;;4.60;;
77876;SDS011;67251;50.844;7.978;2023-02-24T17:00:11;7.32;;;4.25;;
77876;SDS011;67251;50.844;7.978;2023-02-24T17:02:39;10.85;;;5.00;;
77876;SDS011;67251;50.844;7.978;2023-02-24T17:05:09;9.52;;;4.70;;
77876;SDS011;67251;50.844;7.978;2023-02-24T17:07:44;9.88;;;4.47;;
77876;SDS011;67251;50.844;7.978;2023-02-24T17:10:10;9.38;;;4.40;;
77876;SDS011;67251;50.844;7.978;2023-02-24T17:12:36;9.93;;;4.55;;
77876;SDS011;67251;50.844;7.978;2023-02-24T17:15:02;13.13;;;5.32;;
77876;SDS011;67251;50.844;7.978;2023-02-24T17:17:27;9.45;;;4.65;;
77876;SDS011;67251;50.844;7.978;2023-02-24T17:19:53;10.50;;;4.97;;
77876;SDS011;67251;50.844;7.978;2023-02-24T17:22:18;9.60;;;4.57;;
77876;SDS011;67251;50.844;7.978;2023-02-24T17:24:44;11.38;;;5.65;;
77876;SDS011;67251;50.844;7.978;2023-02-24T17:27:10;12.63;;;6.03;;
77876;SDS011;67251;50.844;7.978;2023-02-24T17:29:35;14.27;;;7.38;;
77876;SDS011;67251;50.844;7.978;2023-02-24T17:32:01;11.57;;;6.15;;
77876;SDS011;67251;50.844;7.978;2023-02-24T17:34:26;11.57;;;5.90;;
77876;SDS011;67251;50.844;7.978;2023-02-24T17:36:52;14.68;;;6.63;;